<?xml version="1.0" encoding="UTF-8" standalone="no" ?>
<gpx xmlns="http://www.topografix.com/GPX/1/1" xmlns:xsi="http://www.w3.org/2001/XMLSchema-instance" xsi:schemaLocation="http://www.topografix.com/GPX/1/1 http://www.topografix.com/GPX/1/1/gpx.xsd" version="1.1" creator="VisuGPX - https://www.visugpx.com">
  <metadata>
    <name>Edirne-Zagreb</name>
  </metadata>
  <trk>
    <name><![CDATA[Tour d'Europe: étape 609]]></name>
    <extensions>
      <line xmlns="http://www.topografix.com/GPX/gpx_style/0/2">
        <color>008800</color>
        <width>4</width>
      </line>
    </extensions>
    <trkseg>
      <trkpt lat="41.84446" lon="26.08254">
        <ele>119.888211</ele>
        <time>2022-02-27T07:28:10.619Z</time>
      </trkpt>
      <trkpt lat="41.84509" lon="26.08232">
        <ele>119.795872</ele>
        <time>2022-02-27T07:28:47.602Z</time>
      </trkpt>
      <trkpt lat="41.84663" lon="26.08434">
        <ele>116.602291</ele>
        <time>2022-02-27T07:29:47.592Z</time>
      </trkpt>
      <trkpt lat="41.84887" lon="26.08458">
        <ele>110.504466</ele>
        <time>2022-02-27T07:30:44.586Z</time>
      </trkpt>
      <trkpt lat="41.85094" lon="26.08342">
        <ele>109.237203</ele>
        <time>2022-02-27T07:31:35.621Z</time>
      </trkpt>
      <trkpt lat="41.85287" lon="26.08214">
        <ele>107.921239</ele>
        <time>2022-02-27T07:32:23.600Z</time>
      </trkpt>
      <trkpt lat="41.85475" lon="26.08039">
        <ele>111.075718</ele>
        <time>2022-02-27T07:33:24.588Z</time>
      </trkpt>
      <trkpt lat="41.85661" lon="26.07858">
        <ele>109.111995</ele>
        <time>2022-02-27T07:34:16.593Z</time>
      </trkpt>
      <trkpt lat="41.85811" lon="26.0766">
        <ele>106.225251</ele>
        <time>2022-02-27T07:35:01.592Z</time>
      </trkpt>
      <trkpt lat="41.85955" lon="26.07434">
        <ele>106.034212</ele>
        <time>2022-02-27T07:35:47.603Z</time>
      </trkpt>
      <trkpt lat="41.86084" lon="26.07228">
        <ele>107.663031</ele>
        <time>2022-02-27T07:36:27.586Z</time>
      </trkpt>
      <trkpt lat="41.86228" lon="26.07">
        <ele>109.42286</ele>
        <time>2022-02-27T07:37:17.605Z</time>
      </trkpt>
      <trkpt lat="41.86386" lon="26.06749">
        <ele>109.681066</ele>
        <time>2022-02-27T07:38:17.608Z</time>
      </trkpt>
      <trkpt lat="41.86513" lon="26.06545">
        <ele>109.512613</ele>
        <time>2022-02-27T07:38:57.603Z</time>
      </trkpt>
      <trkpt lat="41.86644" lon="26.06337">
        <ele>110.496751</ele>
        <time>2022-02-27T07:39:39.572Z</time>
      </trkpt>
      <trkpt lat="41.86787" lon="26.06074">
        <ele>113.36211</ele>
        <time>2022-02-27T07:40:38.614Z</time>
      </trkpt>
      <trkpt lat="41.86834" lon="26.05819">
        <ele>111.470495</ele>
        <time>2022-02-27T07:41:19.595Z</time>
      </trkpt>
      <trkpt lat="41.86863" lon="26.05554">
        <ele>108.790638</ele>
        <time>2022-02-27T07:42:00.598Z</time>
      </trkpt>
      <trkpt lat="41.86894" lon="26.05263">
        <ele>109.41086</ele>
        <time>2022-02-27T07:42:47.599Z</time>
      </trkpt>
      <trkpt lat="41.86926" lon="26.04929">
        <ele>112.889984</ele>
        <time>2022-02-27T07:43:47.613Z</time>
      </trkpt>
      <trkpt lat="41.86944" lon="26.04658">
        <ele>115.049244</ele>
        <time>2022-02-27T07:44:47.589Z</time>
      </trkpt>
      <trkpt lat="41.86925" lon="26.04337">
        <ele>114.92983</ele>
        <time>2022-02-27T07:45:50.614Z</time>
      </trkpt>
      <trkpt lat="41.86901" lon="26.04003">
        <ele>115.216225</ele>
        <time>2022-02-27T07:46:50.610Z</time>
      </trkpt>
      <trkpt lat="41.86876" lon="26.03668">
        <ele>118.415291</ele>
        <time>2022-02-27T07:47:50.604Z</time>
      </trkpt>
      <trkpt lat="41.8692" lon="26.03321">
        <ele>120.518026</ele>
        <time>2022-02-27T07:48:53.606Z</time>
      </trkpt>
      <trkpt lat="41.86972" lon="26.03003">
        <ele>122.275536</ele>
        <time>2022-02-27T07:49:53.617Z</time>
      </trkpt>
      <trkpt lat="41.87025" lon="26.02678">
        <ele>124.015289</ele>
        <time>2022-02-27T07:50:53.599Z</time>
      </trkpt>
      <trkpt lat="41.87079" lon="26.02353">
        <ele>121.191598</ele>
        <time>2022-02-27T07:51:54.598Z</time>
      </trkpt>
      <trkpt lat="41.8713" lon="26.02018">
        <ele>122.221389</ele>
        <time>2022-02-27T07:52:54.606Z</time>
      </trkpt>
      <trkpt lat="41.8718" lon="26.01682">
        <ele>123.330968</ele>
        <time>2022-02-27T07:53:54.628Z</time>
      </trkpt>
      <trkpt lat="41.87216" lon="26.01338">
        <ele>123.169727</ele>
        <time>2022-02-27T07:54:56.635Z</time>
      </trkpt>
      <trkpt lat="41.87237" lon="26.01004">
        <ele>123.541659</ele>
        <time>2022-02-27T07:55:56.611Z</time>
      </trkpt>
      <trkpt lat="41.87259" lon="26.0066">
        <ele>124.077552</ele>
        <time>2022-02-27T07:56:56.604Z</time>
      </trkpt>
      <trkpt lat="41.8728" lon="26.00323">
        <ele>125.20596</ele>
        <time>2022-02-27T07:57:56.603Z</time>
      </trkpt>
      <trkpt lat="41.87321" lon="25.99981">
        <ele>121.541305</ele>
        <time>2022-02-27T07:58:43.628Z</time>
      </trkpt>
      <trkpt lat="41.87421" lon="25.99721">
        <ele>111.706164</ele>
        <time>2022-02-27T07:59:07.609Z</time>
      </trkpt>
      <trkpt lat="41.87546" lon="25.99428">
        <ele>101.875564</ele>
        <time>2022-02-27T07:59:49.622Z</time>
      </trkpt>
      <trkpt lat="41.87662" lon="25.9915">
        <ele>102.496142</ele>
        <time>2022-02-27T08:00:43.608Z</time>
      </trkpt>
      <trkpt lat="41.87779" lon="25.98872">
        <ele>101.212506</ele>
        <time>2022-02-27T08:01:37.597Z</time>
      </trkpt>
      <trkpt lat="41.87876" lon="25.9864">
        <ele>102.140274</ele>
        <time>2022-02-27T08:02:19.602Z</time>
      </trkpt>
      <trkpt lat="41.87978" lon="25.98395">
        <ele>104.347528</ele>
        <time>2022-02-27T08:03:04.610Z</time>
      </trkpt>
      <trkpt lat="41.88078" lon="25.98157">
        <ele>104.631001</ele>
        <time>2022-02-27T08:03:48.610Z</time>
      </trkpt>
      <trkpt lat="41.88202" lon="25.97866">
        <ele>108.7966</ele>
        <time>2022-02-27T08:04:48.594Z</time>
      </trkpt>
      <trkpt lat="41.88324" lon="25.97568">
        <ele>109.259185</ele>
        <time>2022-02-27T08:05:46.604Z</time>
      </trkpt>
      <trkpt lat="41.88454" lon="25.97315">
        <ele>113.344017</ele>
        <time>2022-02-27T08:06:40.590Z</time>
      </trkpt>
      <trkpt lat="41.88615" lon="25.97124">
        <ele>115.503998</ele>
        <time>2022-02-27T08:07:40.585Z</time>
      </trkpt>
      <trkpt lat="41.88788" lon="25.96918">
        <ele>113.112008</ele>
        <time>2022-02-27T08:08:31.617Z</time>
      </trkpt>
      <trkpt lat="41.88957" lon="25.96719">
        <ele>114.80347</ele>
        <time>2022-02-27T08:09:24.609Z</time>
      </trkpt>
      <trkpt lat="41.89122" lon="25.96537">
        <ele>116.494856</ele>
        <time>2022-02-27T08:10:25.592Z</time>
      </trkpt>
      <trkpt lat="41.89313" lon="25.96332">
        <ele>115.627065</ele>
        <time>2022-02-27T08:11:26.618Z</time>
      </trkpt>
      <trkpt lat="41.89446" lon="25.96136">
        <ele>112.679144</ele>
        <time>2022-02-27T08:12:08.605Z</time>
      </trkpt>
      <trkpt lat="41.89554" lon="25.95917">
        <ele>115.042889</ele>
        <time>2022-02-27T08:12:48.584Z</time>
      </trkpt>
      <trkpt lat="41.89659" lon="25.95681">
        <ele>116.431335</ele>
        <time>2022-02-27T08:13:32.609Z</time>
      </trkpt>
      <trkpt lat="41.89769" lon="25.95407">
        <ele>112.021944</ele>
        <time>2022-02-27T08:14:28.587Z</time>
      </trkpt>
      <trkpt lat="41.89887" lon="25.95177">
        <ele>113.749936</ele>
        <time>2022-02-27T08:15:17.597Z</time>
      </trkpt>
      <trkpt lat="41.90057" lon="25.95001">
        <ele>111.119844</ele>
        <time>2022-02-27T08:15:59.589Z</time>
      </trkpt>
      <trkpt lat="41.90211" lon="25.94844">
        <ele>111.05977</ele>
        <time>2022-02-27T08:16:40.609Z</time>
      </trkpt>
      <trkpt lat="41.90376" lon="25.94676">
        <ele>110.657043</ele>
        <time>2022-02-27T08:17:25.598Z</time>
      </trkpt>
      <trkpt lat="41.90565" lon="25.94486">
        <ele>111.852415</ele>
        <time>2022-02-27T08:18:19.612Z</time>
      </trkpt>
      <trkpt lat="41.90759" lon="25.94286">
        <ele>114.30906</ele>
        <time>2022-02-27T08:19:19.631Z</time>
      </trkpt>
      <trkpt lat="41.90946" lon="25.94095">
        <ele>114.403023</ele>
        <time>2022-02-27T08:20:16.604Z</time>
      </trkpt>
      <trkpt lat="41.9112" lon="25.93918">
        <ele>120.826068</ele>
        <time>2022-02-27T08:21:19.608Z</time>
      </trkpt>
      <trkpt lat="41.91285" lon="25.93751">
        <ele>128.48527</ele>
        <time>2022-02-27T08:22:44.611Z</time>
      </trkpt>
      <trkpt lat="41.91456" lon="25.93578">
        <ele>132.676608</ele>
        <time>2022-02-27T08:24:02.612Z</time>
      </trkpt>
      <trkpt lat="41.91616" lon="25.93381">
        <ele>134.47594</ele>
        <time>2022-02-27T08:25:22.603Z</time>
      </trkpt>
      <trkpt lat="41.91763" lon="25.93146">
        <ele>134.599313</ele>
        <time>2022-02-27T08:26:33.591Z</time>
      </trkpt>
      <trkpt lat="41.91818" lon="25.93019">
        <ele>133.133</ele>
        <time>2022-02-27T08:30:53.647Z</time>
      </trkpt>
      <trkpt lat="41.91936" lon="25.9278">
        <ele>132.962367</ele>
        <time>2022-02-27T08:31:55.601Z</time>
      </trkpt>
      <trkpt lat="41.92058" lon="25.92497">
        <ele>136.148097</ele>
        <time>2022-02-27T08:32:58.595Z</time>
      </trkpt>
      <trkpt lat="41.92165" lon="25.92229">
        <ele>132.917737</ele>
        <time>2022-02-27T08:33:49.602Z</time>
      </trkpt>
      <trkpt lat="41.92282" lon="25.91945">
        <ele>132.299648</ele>
        <time>2022-02-27T08:34:45.594Z</time>
      </trkpt>
      <trkpt lat="41.92391" lon="25.91666">
        <ele>134.610163</ele>
        <time>2022-02-27T08:35:42.597Z</time>
      </trkpt>
      <trkpt lat="41.92499" lon="25.91401">
        <ele>137.994975</ele>
        <time>2022-02-27T08:36:37.712Z</time>
      </trkpt>
      <trkpt lat="41.92625" lon="25.91163">
        <ele>136.628986</ele>
        <time>2022-02-27T08:37:29.596Z</time>
      </trkpt>
      <trkpt lat="41.9275" lon="25.90907">
        <ele>136.736555</ele>
        <time>2022-02-27T08:38:12.608Z</time>
      </trkpt>
      <trkpt lat="41.92861" lon="25.90662">
        <ele>133.743745</ele>
        <time>2022-02-27T08:39:07.607Z</time>
      </trkpt>
      <trkpt lat="41.92977" lon="25.90425">
        <ele>132.960949</ele>
        <time>2022-02-27T08:40:11.608Z</time>
      </trkpt>
      <trkpt lat="41.93136" lon="25.90237">
        <ele>130.118087</ele>
        <time>2022-02-27T08:41:01.617Z</time>
      </trkpt>
      <trkpt lat="41.93335" lon="25.90125">
        <ele>121.84448</ele>
        <time>2022-02-27T08:42:27.607Z</time>
      </trkpt>
      <trkpt lat="41.93542" lon="25.8999">
        <ele>124.854169</ele>
        <time>2022-02-27T08:43:27.645Z</time>
      </trkpt>
      <trkpt lat="41.93738" lon="25.89858">
        <ele>129.623056</ele>
        <time>2022-02-27T08:44:33.609Z</time>
      </trkpt>
      <trkpt lat="41.93927" lon="25.89735">
        <ele>134.119423</ele>
        <time>2022-02-27T08:45:44.610Z</time>
      </trkpt>
      <trkpt lat="41.94101" lon="25.8959">
        <ele>139.730432</ele>
        <time>2022-02-27T08:47:14.606Z</time>
      </trkpt>
      <trkpt lat="41.94246" lon="25.89394">
        <ele>148.057165</ele>
        <time>2022-02-27T08:49:08.610Z</time>
      </trkpt>
      <trkpt lat="41.94359" lon="25.89191">
        <ele>164.097165</ele>
        <time>2022-02-27T08:51:20.636Z</time>
      </trkpt>
      <trkpt lat="41.94366" lon="25.88937">
        <ele>179.682063</ele>
        <time>2022-02-27T08:53:28.626Z</time>
      </trkpt>
      <trkpt lat="41.94325" lon="25.88671">
        <ele>190.487693</ele>
        <time>2022-02-27T08:55:41.607Z</time>
      </trkpt>
      <trkpt lat="41.94268" lon="25.88422">
        <ele>197.55819</ele>
        <time>2022-02-27T08:57:28.596Z</time>
      </trkpt>
      <trkpt lat="41.94221" lon="25.88175">
        <ele>201.273849</ele>
        <time>2022-02-27T08:59:09.605Z</time>
      </trkpt>
      <trkpt lat="41.9424" lon="25.87903">
        <ele>207.797518</ele>
        <time>2022-02-27T09:00:55.618Z</time>
      </trkpt>
      <trkpt lat="41.94256" lon="25.87641">
        <ele>214.797896</ele>
        <time>2022-02-27T09:02:32.629Z</time>
      </trkpt>
      <trkpt lat="41.94238" lon="25.87371">
        <ele>220.558018</ele>
        <time>2022-02-27T09:04:04.590Z</time>
      </trkpt>
      <trkpt lat="41.94189" lon="25.87111">
        <ele>225.92096</ele>
        <time>2022-02-27T09:05:20.612Z</time>
      </trkpt>
      <trkpt lat="41.94111" lon="25.86848">
        <ele>235.06187</ele>
        <time>2022-02-27T09:07:20.681Z</time>
      </trkpt>
      <trkpt lat="41.94083" lon="25.8658">
        <ele>236.698216</ele>
        <time>2022-02-27T09:08:44.613Z</time>
      </trkpt>
      <trkpt lat="41.94213" lon="25.86227">
        <ele>228.648334</ele>
        <time>2022-02-27T09:09:24.621Z</time>
      </trkpt>
      <trkpt lat="41.94389" lon="25.86059">
        <ele>232.834972</ele>
        <time>2022-02-27T09:10:34.619Z</time>
      </trkpt>
      <trkpt lat="41.94563" lon="25.85876">
        <ele>236.611928</ele>
        <time>2022-02-27T09:11:49.622Z</time>
      </trkpt>
      <trkpt lat="41.94616" lon="25.85594">
        <ele>231.047995</ele>
        <time>2022-02-27T09:12:11.630Z</time>
      </trkpt>
      <trkpt lat="41.94635" lon="25.85242">
        <ele>225.512393</ele>
        <time>2022-02-27T09:12:47.628Z</time>
      </trkpt>
      <trkpt lat="41.94638" lon="25.84936">
        <ele>227.942117</ele>
        <time>2022-02-27T09:13:41.633Z</time>
      </trkpt>
      <trkpt lat="41.94599" lon="25.84648">
        <ele>227.788629</ele>
        <time>2022-02-27T09:14:41.608Z</time>
      </trkpt>
      <trkpt lat="41.94527" lon="25.84365">
        <ele>231.602882</ele>
        <time>2022-02-27T09:15:56.616Z</time>
      </trkpt>
      <trkpt lat="41.94467" lon="25.84106">
        <ele>236.51141</ele>
        <time>2022-02-27T09:17:18.616Z</time>
      </trkpt>
      <trkpt lat="41.94429" lon="25.83839">
        <ele>240.897075</ele>
        <time>2022-02-27T09:18:43.625Z</time>
      </trkpt>
      <trkpt lat="41.94386" lon="25.83533">
        <ele>239.627384</ele>
        <time>2022-02-27T09:19:53.659Z</time>
      </trkpt>
      <trkpt lat="41.94379" lon="25.83233">
        <ele>239.469548</ele>
        <time>2022-02-27T09:20:50.612Z</time>
      </trkpt>
      <trkpt lat="41.94365" lon="25.82934">
        <ele>241.572327</ele>
        <time>2022-02-27T09:21:45.657Z</time>
      </trkpt>
      <trkpt lat="41.94321" lon="25.82654">
        <ele>246.402435</ele>
        <time>2022-02-27T09:23:00.620Z</time>
      </trkpt>
      <trkpt lat="41.94202" lon="25.82437">
        <ele>249.112998</ele>
        <time>2022-02-27T09:24:42.632Z</time>
      </trkpt>
      <trkpt lat="41.94104" lon="25.82173">
        <ele>248.139372</ele>
        <time>2022-02-27T09:25:43.629Z</time>
      </trkpt>
      <trkpt lat="41.94148" lon="25.81873">
        <ele>247.557117</ele>
        <time>2022-02-27T09:26:46.668Z</time>
      </trkpt>
      <trkpt lat="41.94241" lon="25.81578">
        <ele>244.739216</ele>
        <time>2022-02-27T09:27:34.621Z</time>
      </trkpt>
      <trkpt lat="41.9428" lon="25.81221">
        <ele>234.006423</ele>
        <time>2022-02-27T09:28:05.630Z</time>
      </trkpt>
      <trkpt lat="41.94309" lon="25.80947">
        <ele>226.795573</ele>
        <time>2022-02-27T09:28:27.619Z</time>
      </trkpt>
      <trkpt lat="41.94345" lon="25.80645">
        <ele>219.354184</ele>
        <time>2022-02-27T09:28:52.613Z</time>
      </trkpt>
      <trkpt lat="41.9434" lon="25.80331">
        <ele>208.558294</ele>
        <time>2022-02-27T09:29:18.612Z</time>
      </trkpt>
      <trkpt lat="41.94211" lon="25.80062">
        <ele>205.574212</ele>
        <time>2022-02-27T09:29:50.647Z</time>
      </trkpt>
      <trkpt lat="41.94081" lon="25.79859">
        <ele>222.652322</ele>
        <time>2022-02-27T09:31:28.630Z</time>
      </trkpt>
      <trkpt lat="41.93901" lon="25.79766">
        <ele>225.287575</ele>
        <time>2022-02-27T09:33:22.627Z</time>
      </trkpt>
      <trkpt lat="41.93711" lon="25.79758">
        <ele>235.083424</ele>
        <time>2022-02-27T09:35:27.631Z</time>
      </trkpt>
      <trkpt lat="41.93573" lon="25.79519">
        <ele>231.741243</ele>
        <time>2022-02-27T09:36:46.607Z</time>
      </trkpt>
      <trkpt lat="41.93346" lon="25.79391">
        <ele>225.266578</ele>
        <time>2022-02-27T09:37:16.604Z</time>
      </trkpt>
      <trkpt lat="41.93103" lon="25.79418">
        <ele>213.519463</ele>
        <time>2022-02-27T09:37:44.671Z</time>
      </trkpt>
      <trkpt lat="41.92869" lon="25.79582">
        <ele>198.432192</ele>
        <time>2022-02-27T09:38:19.610Z</time>
      </trkpt>
      <trkpt lat="41.92702" lon="25.79471">
        <ele>186.588555</ele>
        <time>2022-02-27T09:38:40.663Z</time>
      </trkpt>
      <trkpt lat="41.92671" lon="25.79142">
        <ele>175.175568</ele>
        <time>2022-02-27T09:39:11.639Z</time>
      </trkpt>
      <trkpt lat="41.92653" lon="25.78835">
        <ele>179.2299</ele>
        <time>2022-02-27T09:40:08.623Z</time>
      </trkpt>
      <trkpt lat="41.92636" lon="25.78528">
        <ele>182.768181</ele>
        <time>2022-02-27T09:41:08.699Z</time>
      </trkpt>
      <trkpt lat="41.92616" lon="25.78202">
        <ele>182.335781</ele>
        <time>2022-02-27T09:42:05.641Z</time>
      </trkpt>
      <trkpt lat="41.92629" lon="25.7785">
        <ele>185.845772</ele>
        <time>2022-02-27T09:43:07.627Z</time>
      </trkpt>
      <trkpt lat="41.9271" lon="25.77579">
        <ele>185.62474</ele>
        <time>2022-02-27T09:43:56.658Z</time>
      </trkpt>
      <trkpt lat="41.92759" lon="25.77299">
        <ele>182.860344</ele>
        <time>2022-02-27T09:44:43.648Z</time>
      </trkpt>
      <trkpt lat="41.92843" lon="25.76992">
        <ele>183.495183</ele>
        <time>2022-02-27T09:45:42.617Z</time>
      </trkpt>
      <trkpt lat="41.93011" lon="25.76763">
        <ele>185.760762</ele>
        <time>2022-02-27T09:46:42.624Z</time>
      </trkpt>
      <trkpt lat="41.93124" lon="25.76483">
        <ele>187.08716</ele>
        <time>2022-02-27T09:47:42.629Z</time>
      </trkpt>
      <trkpt lat="41.93173" lon="25.7614">
        <ele>184.258168</ele>
        <time>2022-02-27T09:48:43.621Z</time>
      </trkpt>
      <trkpt lat="41.93215" lon="25.75829">
        <ele>185.909328</ele>
        <time>2022-02-27T09:49:43.664Z</time>
      </trkpt>
      <trkpt lat="41.93255" lon="25.75541">
        <ele>186.606187</ele>
        <time>2022-02-27T09:50:43.633Z</time>
      </trkpt>
      <trkpt lat="41.93293" lon="25.75257">
        <ele>188.320337</ele>
        <time>2022-02-27T09:51:46.679Z</time>
      </trkpt>
      <trkpt lat="41.93299" lon="25.74978">
        <ele>194.774524</ele>
        <time>2022-02-27T09:53:03.681Z</time>
      </trkpt>
      <trkpt lat="41.93191" lon="25.74748">
        <ele>192.668068</ele>
        <time>2022-02-27T09:54:07.636Z</time>
      </trkpt>
      <trkpt lat="41.9303" lon="25.74533">
        <ele>189.895228</ele>
        <time>2022-02-27T09:55:18.625Z</time>
      </trkpt>
      <trkpt lat="41.92839" lon="25.7441">
        <ele>190.804647</ele>
        <time>2022-02-27T09:56:12.637Z</time>
      </trkpt>
      <trkpt lat="41.92657" lon="25.74305">
        <ele>189.899545</ele>
        <time>2022-02-27T09:56:56.631Z</time>
      </trkpt>
      <trkpt lat="41.92488" lon="25.74102">
        <ele>197.081645</ele>
        <time>2022-02-27T09:57:47.630Z</time>
      </trkpt>
      <trkpt lat="41.92405" lon="25.73827">
        <ele>205.993327</ele>
        <time>2022-02-27T09:58:37.624Z</time>
      </trkpt>
      <trkpt lat="41.92345" lon="25.73529">
        <ele>199.656948</ele>
        <time>2022-02-27T09:59:30.638Z</time>
      </trkpt>
      <trkpt lat="41.92396" lon="25.73247">
        <ele>189.625545</ele>
        <time>2022-02-27T10:00:17.652Z</time>
      </trkpt>
      <trkpt lat="41.92448" lon="25.7293">
        <ele>189.453037</ele>
        <time>2022-02-27T10:01:15.672Z</time>
      </trkpt>
      <trkpt lat="41.92375" lon="25.72617">
        <ele>194.117987</ele>
        <time>2022-02-27T10:02:15.636Z</time>
      </trkpt>
      <trkpt lat="41.92298" lon="25.72354">
        <ele>191.456665</ele>
        <time>2022-02-27T10:03:19.619Z</time>
      </trkpt>
      <trkpt lat="41.92252" lon="25.7216">
        <ele>180.608169</ele>
        <time>2022-02-27T10:21:24.628Z</time>
      </trkpt>
      <trkpt lat="41.92124" lon="25.71912">
        <ele>180.43652</ele>
        <time>2022-02-27T10:22:29.632Z</time>
      </trkpt>
      <trkpt lat="41.9198" lon="25.71661">
        <ele>180.655863</ele>
        <time>2022-02-27T10:23:30.651Z</time>
      </trkpt>
      <trkpt lat="41.91789" lon="25.7147">
        <ele>180.894356</ele>
        <time>2022-02-27T10:24:24.630Z</time>
      </trkpt>
      <trkpt lat="41.91639" lon="25.7126">
        <ele>186.977276</ele>
        <time>2022-02-27T10:25:30.630Z</time>
      </trkpt>
      <trkpt lat="41.91568" lon="25.71007">
        <ele>196.530598</ele>
        <time>2022-02-27T10:26:58.673Z</time>
      </trkpt>
      <trkpt lat="41.91504" lon="25.70715">
        <ele>198.805113</ele>
        <time>2022-02-27T10:28:21.664Z</time>
      </trkpt>
      <trkpt lat="41.91431" lon="25.70408">
        <ele>197.971506</ele>
        <time>2022-02-27T10:29:21.641Z</time>
      </trkpt>
      <trkpt lat="41.91375" lon="25.7015">
        <ele>192.338781</ele>
        <time>2022-02-27T10:30:02.653Z</time>
      </trkpt>
      <trkpt lat="41.91409" lon="25.69843">
        <ele>191.85652</ele>
        <time>2022-02-27T10:30:50.644Z</time>
      </trkpt>
      <trkpt lat="41.91481" lon="25.69575">
        <ele>196.735134</ele>
        <time>2022-02-27T10:32:06.629Z</time>
      </trkpt>
      <trkpt lat="41.91547" lon="25.69317">
        <ele>199.913842</ele>
        <time>2022-02-27T10:33:10.649Z</time>
      </trkpt>
      <trkpt lat="41.91619" lon="25.69033">
        <ele>194.585735</ele>
        <time>2022-02-27T10:33:55.637Z</time>
      </trkpt>
      <trkpt lat="41.91692" lon="25.68756">
        <ele>191.732118</ele>
        <time>2022-02-27T10:34:35.643Z</time>
      </trkpt>
      <trkpt lat="41.91758" lon="25.68492">
        <ele>193.110358</ele>
        <time>2022-02-27T10:35:19.642Z</time>
      </trkpt>
      <trkpt lat="41.91833" lon="25.68195">
        <ele>193.701392</ele>
        <time>2022-02-27T10:36:13.639Z</time>
      </trkpt>
      <trkpt lat="41.91914" lon="25.67874">
        <ele>194.107876</ele>
        <time>2022-02-27T10:37:13.632Z</time>
      </trkpt>
      <trkpt lat="41.91996" lon="25.67549">
        <ele>198.410935</ele>
        <time>2022-02-27T10:38:12.647Z</time>
      </trkpt>
      <trkpt lat="41.92065" lon="25.67239">
        <ele>199.804995</ele>
        <time>2022-02-27T10:39:08.631Z</time>
      </trkpt>
      <trkpt lat="41.92068" lon="25.66923">
        <ele>199.078005</ele>
        <time>2022-02-27T10:40:02.638Z</time>
      </trkpt>
      <trkpt lat="41.92115" lon="25.666">
        <ele>199.322095</ele>
        <time>2022-02-27T10:41:00.641Z</time>
      </trkpt>
      <trkpt lat="41.92173" lon="25.66293">
        <ele>195.358515</ele>
        <time>2022-02-27T10:41:54.630Z</time>
      </trkpt>
      <trkpt lat="41.92231" lon="25.65958">
        <ele>192.870816</ele>
        <time>2022-02-27T10:42:54.626Z</time>
      </trkpt>
      <trkpt lat="41.92264" lon="25.6567">
        <ele>194.636597</ele>
        <time>2022-02-27T10:43:54.664Z</time>
      </trkpt>
      <trkpt lat="41.9229" lon="25.65379">
        <ele>198.017418</ele>
        <time>2022-02-27T10:44:57.641Z</time>
      </trkpt>
      <trkpt lat="41.92319" lon="25.651">
        <ele>198.688878</ele>
        <time>2022-02-27T10:45:57.646Z</time>
      </trkpt>
      <trkpt lat="41.92343" lon="25.64805">
        <ele>200.700671</ele>
        <time>2022-02-27T10:46:57.639Z</time>
      </trkpt>
      <trkpt lat="41.92375" lon="25.64504">
        <ele>200.207998</ele>
        <time>2022-02-27T10:47:49.633Z</time>
      </trkpt>
      <trkpt lat="41.92446" lon="25.64192">
        <ele>201.820148</ele>
        <time>2022-02-27T10:48:45.681Z</time>
      </trkpt>
      <trkpt lat="41.92525" lon="25.63881">
        <ele>202.502229</ele>
        <time>2022-02-27T10:49:44.650Z</time>
      </trkpt>
      <trkpt lat="41.92606" lon="25.63582">
        <ele>204.048662</ele>
        <time>2022-02-27T10:50:40.648Z</time>
      </trkpt>
      <trkpt lat="41.9273" lon="25.63342">
        <ele>201.067593</ele>
        <time>2022-02-27T10:51:23.638Z</time>
      </trkpt>
      <trkpt lat="41.92807" lon="25.63033">
        <ele>202.684965</ele>
        <time>2022-02-27T10:52:22.642Z</time>
      </trkpt>
      <trkpt lat="41.92863" lon="25.62737">
        <ele>202.360525</ele>
        <time>2022-02-27T10:53:13.639Z</time>
      </trkpt>
      <trkpt lat="41.92921" lon="25.62431">
        <ele>202.343824</ele>
        <time>2022-02-27T10:54:05.645Z</time>
      </trkpt>
      <trkpt lat="41.92972" lon="25.62135">
        <ele>203.39491</ele>
        <time>2022-02-27T10:55:05.647Z</time>
      </trkpt>
      <trkpt lat="41.93037" lon="25.61832">
        <ele>205.544421</ele>
        <time>2022-02-27T10:56:05.652Z</time>
      </trkpt>
      <trkpt lat="41.9306" lon="25.61515">
        <ele>207.515574</ele>
        <time>2022-02-27T10:56:59.646Z</time>
      </trkpt>
      <trkpt lat="41.93072" lon="25.61205">
        <ele>209.34246</ele>
        <time>2022-02-27T10:57:52.658Z</time>
      </trkpt>
      <trkpt lat="41.93087" lon="25.60901">
        <ele>209.843509</ele>
        <time>2022-02-27T10:58:52.640Z</time>
      </trkpt>
      <trkpt lat="41.93101" lon="25.60584">
        <ele>209.887974</ele>
        <time>2022-02-27T10:59:55.680Z</time>
      </trkpt>
      <trkpt lat="41.93112" lon="25.60284">
        <ele>212.915254</ele>
        <time>2022-02-27T11:00:53.644Z</time>
      </trkpt>
      <trkpt lat="41.93128" lon="25.5997">
        <ele>211.50284</ele>
        <time>2022-02-27T11:01:53.646Z</time>
      </trkpt>
      <trkpt lat="41.93142" lon="25.59672">
        <ele>212.366474</ele>
        <time>2022-02-27T11:02:56.658Z</time>
      </trkpt>
      <trkpt lat="41.93148" lon="25.59392">
        <ele>220.859883</ele>
        <time>2022-02-27T11:03:56.648Z</time>
      </trkpt>
      <trkpt lat="41.9316" lon="25.59093">
        <ele>226.42436</ele>
        <time>2022-02-27T11:04:56.645Z</time>
      </trkpt>
      <trkpt lat="41.9323" lon="25.58796">
        <ele>221.524862</ele>
        <time>2022-02-27T11:05:39.648Z</time>
      </trkpt>
      <trkpt lat="41.93262" lon="25.58493">
        <ele>217.294018</ele>
        <time>2022-02-27T11:06:32.651Z</time>
      </trkpt>
      <trkpt lat="41.93266" lon="25.58192">
        <ele>214.972774</ele>
        <time>2022-02-27T11:07:23.653Z</time>
      </trkpt>
      <trkpt lat="41.93277" lon="25.579">
        <ele>216.225786</ele>
        <time>2022-02-27T11:08:10.716Z</time>
      </trkpt>
      <trkpt lat="41.93289" lon="25.57609">
        <ele>218.357442</ele>
        <time>2022-02-27T11:09:27.682Z</time>
      </trkpt>
      <trkpt lat="41.93301" lon="25.57327">
        <ele>218.66605</ele>
        <time>2022-02-27T11:10:36.672Z</time>
      </trkpt>
      <trkpt lat="41.93319" lon="25.5698">
        <ele>210.145196</ele>
        <time>2022-02-27T11:11:22.642Z</time>
      </trkpt>
      <trkpt lat="41.9323" lon="25.56718">
        <ele>213.699379</ele>
        <time>2022-02-27T11:12:34.646Z</time>
      </trkpt>
      <trkpt lat="41.93178" lon="25.56449">
        <ele>216.911001</ele>
        <time>2022-02-27T11:13:22.672Z</time>
      </trkpt>
      <trkpt lat="41.93265" lon="25.56153">
        <ele>215.578768</ele>
        <time>2022-02-27T11:14:19.639Z</time>
      </trkpt>
      <trkpt lat="41.93364" lon="25.55891">
        <ele>227.262453</ele>
        <time>2022-02-27T11:15:22.682Z</time>
      </trkpt>
      <trkpt lat="41.93382" lon="25.55781">
        <ele>227.262453</ele>
        <time>2022-02-27T11:19:00.871Z</time>
      </trkpt>
    </trkseg>
  </trk>
</gpx>